sensor_id;sensor_type;location;lat;lon;timestamp;P1;durP1;ratioP1;P2;durP2;ratioP2
45254;SDS011;30989;52.078;21.014;2023-02-05T00:02:16;25.10;;;8.82;;
45254;SDS011;30989;52.078;21.014;2023-02-05T00:04:42;26.58;;;8.48;;
45254;SDS011;30989;52.078;21.014;2023-02-05T00:07:08;25.25;;;7.45;;
45254;SDS011;30989;52.078;21.014;2023-02-05T00:09:33;27.50;;;9.10;;
45254;SDS011;30989;52.078;21.014;2023-02-05T00:12:00;28.90;;;9.88;;
45254;SDS011;30989;52.078;21.014;2023-02-05T00:14:26;31.02;;;9.02;;
45254;SDS011;30989;52.078;21.014;2023-02-05T00:16:51;29.90;;;10.02;;
45254;SDS011;30989;52.078;21.014;2023-02-05T00:19:17;27.38;;;9.63;;
45254;SDS011;30989;52.078;21.014;2023-02-05T00:21:43;24.70;;;7.57;;
45254;SDS011;30989;52.078;21.014;2023-02-05T00:24:09;28.45;;;7.90;;
45254;SDS011;30989;52.078;21.014;2023-02-05T00:26:35;32.08;;;7.95;;
45254;SDS011;30989;52.078;21.014;2023-02-05T00:29:00;19.25;;;7.35;;
45254;SDS011;30989;52.078;21.014;2023-02-05T00:31:26;23.65;;;8.00;;
45254;SDS011;30989;52.078;21.014;2023-02-05T00:33:53;19.88;;;7.15;;
45254;SDS011;30989;52.078;21.014;2023-02-05T00:36:19;33.78;;;11.13;;
45254;SDS011;30989;52.078;21.014;2023-02-05T00:38:46;17.00;;;6.55;;
45254;SDS011;30989;52.078;21.014;2023-02-05T00:41:12;20.92;;;8.23;;
45254;SDS011;30989;52.078;21.014;2023-02-05T00:43:38;22.20;;;7.20;;
45254;SDS011;30989;52.078;21.014;2023-02-05T00:46:05;32.90;;;9.63;;
45254;SDS011;30989;52.078;21.014;2023-02-05T00:48:31;29.63;;;9.40;;
45254;SDS011;30989;52.078;21.014;2023-02-05T00:50:56;26.15;;;8.85;;
45254;SDS011;30989;52.078;21.014;2023-02-05T00:53:22;25.73;;;9.52;;
45254;SDS011;30989;52.078;21.014;2023-02-05T00:55:51;26.55;;;8.18;;
45254;SDS011;30989;52.078;21.014;2023-02-05T00:58:16;21.38;;;7.43;;
45254;SDS011;30989;52.078;21.014;2023-02-05T01:00:42;21.33;;;7.10;;
45254;SDS011;30989;52.078;21.014;2023-02-05T01:03:08;20.15;;;7.57;;
45254;SDS011;30989;52.078;21.014;2023-02-05T01:05:35;23.05;;;8.18;;
45254;SDS011;30989;52.078;21.014;2023-02-05T01:08:02;18.80;;;6.35;;
45254;SDS011;30989;52.078;21.014;2023-02-05T01:10:28;17.92;;;7.35;;
45254;SDS011;30989;52.078;21.014;2023-02-05T01:12:54;19.58;;;6.80;;
45254;SDS011;30989;52.078;21.014;2023-02-05T01:15:19;24.05;;;7.63;;
45254;SDS011;30989;52.078;21.014;2023-02-05T01:17:45;30.25;;;7.35;;
45254;SDS011;30989;52.078;21.014;2023-02-05T01:20:12;23.45;;;8.02;;
45254;SDS011;30989;52.078;21.014;2023-02-05T01:22:38;24.70;;;7.97;;
45254;SDS011;30989;52.078;21.014;2023-02-05T01:25:04;19.85;;;6.32;;
45254;SDS011;30989;52.078;21.014;2023-02-05T01:27:31;29.85;;;6.97;;
45254;SDS011;30989;52.078;21.014;2023-02-05T01:29:57;26.15;;;7.82;;
45254;SDS011;30989;52.078;21.014;2023-02-05T01:32:23;19.30;;;6.82;;
45254;SDS011;30989;52.078;21.014;2023-02-05T01:34:49;19.73;;;6.53;;
45254;SDS011;30989;52.078;21.014;2023-02-05T01:37:14;25.65;;;8.30;;
45254;SDS011;30989;52.078;21.014;2023-02-05T01:39:40;46.10;;;13.13;;
45254;SDS011;30989;52.078;21.014;2023-02-05T01:48:00;22.70;;;7.32;;
45254;SDS011;30989;52.078;21.014;2023-02-05T01:53:14;23.65;;;7.93;;
45254;SDS011;30989;52.078;21.014;2023-02-05T01:55:49;20.73;;;6.85;;
45254;SDS011;30989;52.078;21.014;2023-02-05T01:58:17;17.50;;;6.10;;
45254;SDS011;30989;52.078;21.014;2023-02-05T02:00:43;16.80;;;6.32;;
45254;SDS011;30989;52.078;21.014;2023-02-05T02:03:10;19.45;;;6.03;;
45254;SDS011;30989;52.078;21.014;2023-02-05T02:05:38;21.77;;;7.05;;
45254;SDS011;30989;52.078;21.014;2023-02-05T02:08:04;18.58;;;6.65;;
45254;SDS011;30989;52.078;21.014;2023-02-05T02:10:30;22.73;;;6.68;;
45254;SDS011;30989;52.078;21.014;2023-02-05T02:12:57;20.35;;;5.97;;
45254;SDS011;30989;52.078;21.014;2023-02-05T02:15:23;18.60;;;6.10;;
45254;SDS011;30989;52.078;21.014;2023-02-05T02:17:52;17.73;;;4.82;;
45254;SDS011;30989;52.078;21.014;2023-02-05T02:20:22;14.90;;;4.50;;
45254;SDS011;30989;52.078;21.014;2023-02-05T02:22:57;18.50;;;7.22;;
45254;SDS011;30989;52.078;21.014;2023-02-05T02:25:46;17.63;;;6.32;;
45254;SDS011;30989;52.078;21.014;2023-02-05T02:28:33;14.57;;;5.47;;
45254;SDS011;30989;52.078;21.014;2023-02-05T02:33:40;15.05;;;5.47;;
45254;SDS011;30989;52.078;21.014;2023-02-05T02:41:46;17.90;;;5.05;;
45254;SDS011;30989;52.078;21.014;2023-02-05T02:46:53;10.95;;;4.47;;
45254;SDS011;30989;52.078;21.014;2023-02-05T02:49:31;17.50;;;6.15;;
45254;SDS011;30989;52.078;21.014;2023-02-05T02:52:01;17.92;;;5.75;;
45254;SDS011;30989;52.078;21.014;2023-02-05T02:54:29;12.55;;;4.88;;
45254;SDS011;30989;52.078;21.014;2023-02-05T02:56:57;13.45;;;5.05;;
45254;SDS011;30989;52.078;21.014;2023-02-05T02:59:25;15.30;;;5.22;;
45254;SDS011;30989;52.078;21.014;2023-02-05T03:01:55;16.95;;;6.18;;
45254;SDS011;30989;52.078;21.014;2023-02-05T03:04:28;17.48;;;6.18;;
45254;SDS011;30989;52.078;21.014;2023-02-05T03:07:00;12.07;;;5.05;;
45254;SDS011;30989;52.078;21.014;2023-02-05T03:09:39;18.88;;;5.72;;
45254;SDS011;30989;52.078;21.014;2023-02-05T03:12:15;15.98;;;4.95;;
45254;SDS011;30989;52.078;21.014;2023-02-05T03:14:40;13.27;;;4.80;;
45254;SDS011;30989;52.078;21.014;2023-02-05T03:17:07;15.30;;;5.47;;
45254;SDS011;30989;52.078;21.014;2023-02-05T03:19:32;12.55;;;4.38;;
45254;SDS011;30989;52.078;21.014;2023-02-05T03:22:00;16.70;;;5.85;;
45254;SDS011;30989;52.078;21.014;2023-02-05T03:24:28;11.10;;;3.72;;
45254;SDS011;30989;52.078;21.014;2023-02-05T03:26:56;12.77;;;3.38;;
45254;SDS011;30989;52.078;21.014;2023-02-05T03:29:27;13.63;;;4.85;;
45254;SDS011;30989;52.078;21.014;2023-02-05T03:32:17;12.63;;;3.90;;
45254;SDS011;30989;52.078;21.014;2023-02-05T03:35:09;14.68;;;4.90;;
45254;SDS011;30989;52.078;21.014;2023-02-05T03:48:44;13.77;;;4.70;;
45254;SDS011;30989;52.078;21.014;2023-02-05T03:51:36;20.92;;;4.40;;
45254;SDS011;30989;52.078;21.014;2023-02-05T03:54:13;12.57;;;3.87;;
45254;SDS011;30989;52.078;21.014;2023-02-05T03:56:48;14.20;;;4.35;;
45254;SDS011;30989;52.078;21.014;2023-02-05T03:59:25;12.35;;;4.43;;
45254;SDS011;30989;52.078;21.014;2023-02-05T04:01:53;11.88;;;3.72;;
45254;SDS011;30989;52.078;21.014;2023-02-05T04:04:19;9.98;;;3.83;;
45254;SDS011;30989;52.078;21.014;2023-02-05T04:06:46;11.85;;;4.32;;
45254;SDS011;30989;52.078;21.014;2023-02-05T04:09:15;14.30;;;4.18;;
45254;SDS011;30989;52.078;21.014;2023-02-05T04:11:42;11.55;;;3.70;;
45254;SDS011;30989;52.078;21.014;2023-02-05T04:14:07;9.88;;;3.65;;
45254;SDS011;30989;52.078;21.014;2023-02-05T04:16:34;17.85;;;5.32;;
45254;SDS011;30989;52.078;21.014;2023-02-05T04:19:02;16.40;;;4.68;;
45254;SDS011;30989;52.078;21.014;2023-02-05T04:21:28;17.40;;;4.45;;
45254;SDS011;30989;52.078;21.014;2023-02-05T04:23:53;12.20;;;4.00;;
45254;SDS011;30989;52.078;21.014;2023-02-05T04:26:19;17.75;;;5.07;;
45254;SDS011;30989;52.078;21.014;2023-02-05T04:28:55;9.30;;;3.78;;
45254;SDS011;30989;52.078;21.014;2023-02-05T04:31:21;14.65;;;4.25;;
45254;SDS011;30989;52.078;21.014;2023-02-05T04:33:46;9.80;;;3.70;;
45254;SDS011;30989;52.078;21.014;2023-02-05T04:36:13;13.00;;;4.40;;
45254;SDS011;30989;52.078;21.014;2023-02-05T04:38:39;9.00;;;3.50;;
45254;SDS011;30989;52.078;21.014;2023-02-05T04:41:04;10.48;;;4.97;;
45254;SDS011;30989;52.078;21.014;2023-02-05T04:43:30;10.63;;;4.05;;
45254;SDS011;30989;52.078;21.014;2023-02-05T04:45:55;11.35;;;4.30;;
45254;SDS011;30989;52.078;21.014;2023-02-05T04:48:21;9.65;;;2.85;;
45254;SDS011;30989;52.078;21.014;2023-02-05T04:50:46;8.98;;;4.00;;
45254;SDS011;30989;52.078;21.014;2023-02-05T04:53:12;11.93;;;4.70;;
45254;SDS011;30989;52.078;21.014;2023-02-05T04:55:37;12.60;;;5.22;;
45254;SDS011;30989;52.078;21.014;2023-02-05T04:58:03;15.20;;;4.28;;
45254;SDS011;30989;52.078;21.014;2023-02-05T05:00:28;9.65;;;3.95;;
45254;SDS011;30989;52.078;21.014;2023-02-05T05:02:54;21.40;;;5.50;;
45254;SDS011;30989;52.078;21.014;2023-02-05T05:05:21;14.75;;;5.43;;
45254;SDS011;30989;52.078;21.014;2023-02-05T05:07:46;16.35;;;4.57;;
45254;SDS011;30989;52.078;21.014;2023-02-05T05:10:12;11.77;;;4.03;;
45254;SDS011;30989;52.078;21.014;2023-02-05T05:12:38;12.52;;;4.88;;
45254;SDS011;30989;52.078;21.014;2023-02-05T05:15:04;12.85;;;4.45;;
45254;SDS011;30989;52.078;21.014;2023-02-05T05:17:30;8.65;;;3.55;;
45254;SDS011;30989;52.078;21.014;2023-02-05T05:19:57;8.85;;;3.75;;
45254;SDS011;30989;52.078;21.014;2023-02-05T05:22:22;8.38;;;3.88;;
45254;SDS011;30989;52.078;21.014;2023-02-05T05:24:47;12.25;;;5.13;;
45254;SDS011;30989;52.078;21.014;2023-02-05T05:27:13;12.38;;;4.95;;
45254;SDS011;30989;52.078;21.014;2023-02-05T05:29:39;16.48;;;5.18;;
45254;SDS011;30989;52.078;21.014;2023-02-05T05:32:04;11.75;;;4.47;;
45254;SDS011;30989;52.078;21.014;2023-02-05T05:34:30;9.77;;;4.65;;
45254;SDS011;30989;52.078;21.014;2023-02-05T05:36:55;11.85;;;4.28;;
45254;SDS011;30989;52.078;21.014;2023-02-05T05:39:21;14.57;;;4.38;;
45254;SDS011;30989;52.078;21.014;2023-02-05T05:42:05;13.48;;;4.85;;
45254;SDS011;30989;52.078;21.014;2023-02-05T05:44:49;15.10;;;6.53;;
45254;SDS011;30989;52.078;21.014;2023-02-05T05:47:20;11.25;;;4.32;;
45254;SDS011;30989;52.078;21.014;2023-02-05T05:49:45;14.13;;;4.30;;
45254;SDS011;30989;52.078;21.014;2023-02-05T05:52:11;11.00;;;4.57;;
45254;SDS011;30989;52.078;21.014;2023-02-05T05:54:37;7.60;;;3.97;;
45254;SDS011;30989;52.078;21.014;2023-02-05T05:57:03;10.63;;;4.30;;
45254;SDS011;30989;52.078;21.014;2023-02-05T05:59:28;10.15;;;3.90;;
45254;SDS011;30989;52.078;21.014;2023-02-05T06:01:55;9.18;;;3.45;;
45254;SDS011;30989;52.078;21.014;2023-02-05T06:04:20;10.98;;;4.13;;
45254;SDS011;30989;52.078;21.014;2023-02-05T06:06:46;12.25;;;4.57;;
45254;SDS011;30989;52.078;21.014;2023-02-05T06:09:11;10.15;;;3.55;;
45254;SDS011;30989;52.078;21.014;2023-02-05T06:11:37;11.70;;;4.93;;
45254;SDS011;30989;52.078;21.014;2023-02-05T06:14:03;14.75;;;4.60;;
45254;SDS011;30989;52.078;21.014;2023-02-05T06:16:28;11.18;;;3.80;;
45254;SDS011;30989;52.078;21.014;2023-02-05T06:18:54;8.82;;;4.35;;
45254;SDS011;30989;52.078;21.014;2023-02-05T06:21:20;9.98;;;4.47;;
45254;SDS011;30989;52.078;21.014;2023-02-05T06:23:45;10.73;;;4.28;;
45254;SDS011;30989;52.078;21.014;2023-02-05T06:26:11;9.77;;;4.03;;
45254;SDS011;30989;52.078;21.014;2023-02-05T06:28:37;11.05;;;4.18;;
45254;SDS011;30989;52.078;21.014;2023-02-05T06:31:02;10.80;;;3.42;;
45254;SDS011;30989;52.078;21.014;2023-02-05T06:33:28;11.57;;;4.25;;
45254;SDS011;30989;52.078;21.014;2023-02-05T06:35:53;12.50;;;4.80;;
45254;SDS011;30989;52.078;21.014;2023-02-05T06:38:19;9.55;;;4.47;;
45254;SDS011;30989;52.078;21.014;2023-02-05T06:40:45;9.05;;;4.47;;
45254;SDS011;30989;52.078;21.014;2023-02-05T06:43:11;11.70;;;4.90;;
45254;SDS011;30989;52.078;21.014;2023-02-05T06:45:37;10.35;;;4.22;;
45254;SDS011;30989;52.078;21.014;2023-02-05T06:48:02;10.43;;;4.55;;
45254;SDS011;30989;52.078;21.014;2023-02-05T06:50:28;12.10;;;4.43;;
45254;SDS011;30989;52.078;21.014;2023-02-05T06:52:53;11.65;;;5.10;;
45254;SDS011;30989;52.078;21.014;2023-02-05T06:55:19;9.75;;;4.00;;
45254;SDS011;30989;52.078;21.014;2023-02-05T06:57:44;13.07;;;4.10;;
45254;SDS011;30989;52.078;21.014;2023-02-05T07:00:10;11.13;;;4.30;;
45254;SDS011;30989;52.078;21.014;2023-02-05T07:02:36;9.00;;;4.35;;
45254;SDS011;30989;52.078;21.014;2023-02-05T07:05:02;9.57;;;3.85;;
45254;SDS011;30989;52.078;21.014;2023-02-05T07:07:27;10.68;;;4.18;;
45254;SDS011;30989;52.078;21.014;2023-02-05T07:09:53;12.40;;;4.53;;
45254;SDS011;30989;52.078;21.014;2023-02-05T07:12:18;11.15;;;4.60;;
45254;SDS011;30989;52.078;21.014;2023-02-05T07:14:44;10.98;;;4.38;;
45254;SDS011;30989;52.078;21.014;2023-02-05T07:17:10;7.43;;;3.35;;
45254;SDS011;30989;52.078;21.014;2023-02-05T07:19:36;9.63;;;4.97;;
45254;SDS011;30989;52.078;21.014;2023-02-05T07:22:02;7.40;;;3.47;;
45254;SDS011;30989;52.078;21.014;2023-02-05T07:24:28;9.63;;;4.10;;
45254;SDS011;30989;52.078;21.014;2023-02-05T07:26:53;11.40;;;3.92;;
45254;SDS011;30989;52.078;21.014;2023-02-05T07:29:19;8.43;;;4.43;;
45254;SDS011;30989;52.078;21.014;2023-02-05T07:31:44;11.98;;;4.47;;
45254;SDS011;30989;52.078;21.014;2023-02-05T07:34:10;11.45;;;4.43;;
45254;SDS011;30989;52.078;21.014;2023-02-05T07:36:35;10.63;;;4.90;;
45254;SDS011;30989;52.078;21.014;2023-02-05T07:39:01;17.58;;;6.15;;
45254;SDS011;30989;52.078;21.014;2023-02-05T07:41:26;15.18;;;5.72;;
45254;SDS011;30989;52.078;21.014;2023-02-05T07:43:52;14.35;;;6.03;;
45254;SDS011;30989;52.078;21.014;2023-02-05T07:46:19;12.10;;;5.30;;
45254;SDS011;30989;52.078;21.014;2023-02-05T07:48:45;16.08;;;5.35;;
45254;SDS011;30989;52.078;21.014;2023-02-05T07:51:15;14.13;;;5.15;;
45254;SDS011;30989;52.078;21.014;2023-02-05T07:53:42;10.75;;;4.63;;
45254;SDS011;30989;52.078;21.014;2023-02-05T07:56:08;10.52;;;4.65;;
45254;SDS011;30989;52.078;21.014;2023-02-05T07:58:34;10.23;;;4.30;;
45254;SDS011;30989;52.078;21.014;2023-02-05T08:01:00;10.90;;;3.83;;
45254;SDS011;30989;52.078;21.014;2023-02-05T08:03:27;8.60;;;3.58;;
45254;SDS011;30989;52.078;21.014;2023-02-05T08:05:52;14.48;;;5.43;;
45254;SDS011;30989;52.078;21.014;2023-02-05T08:08:18;15.05;;;5.90;;
45254;SDS011;30989;52.078;21.014;2023-02-05T08:10:43;11.05;;;4.47;;
45254;SDS011;30989;52.078;21.014;2023-02-05T08:13:09;11.13;;;4.28;;
45254;SDS011;30989;52.078;21.014;2023-02-05T08:15:36;10.82;;;3.45;;
45254;SDS011;30989;52.078;21.014;2023-02-05T08:18:03;12.40;;;4.65;;
45254;SDS011;30989;52.078;21.014;2023-02-05T08:20:28;11.85;;;4.80;;
45254;SDS011;30989;52.078;21.014;2023-02-05T08:22:54;12.48;;;4.60;;
45254;SDS011;30989;52.078;21.014;2023-02-05T08:25:19;11.40;;;5.30;;
45254;SDS011;30989;52.078;21.014;2023-02-05T08:27:46;11.05;;;4.53;;
45254;SDS011;30989;52.078;21.014;2023-02-05T08:30:13;10.35;;;4.82;;
45254;SDS011;30989;52.078;21.014;2023-02-05T08:32:41;8.85;;;4.30;;
45254;SDS011;30989;52.078;21.014;2023-02-05T08:35:07;9.15;;;4.65;;
45254;SDS011;30989;52.078;21.014;2023-02-05T08:37:32;14.45;;;5.20;;
45254;SDS011;30989;52.078;21.014;2023-02-05T08:39:58;13.85;;;6.38;;
45254;SDS011;30989;52.078;21.014;2023-02-05T08:42:24;12.20;;;4.72;;
45254;SDS011;30989;52.078;21.014;2023-02-05T08:44:49;10.80;;;5.53;;
45254;SDS011;30989;52.078;21.014;2023-02-05T08:47:19;7.43;;;3.67;;
45254;SDS011;30989;52.078;21.014;2023-02-05T08:49:45;6.63;;;2.80;;
45254;SDS011;30989;52.078;21.014;2023-02-05T08:52:11;5.97;;;2.75;;
45254;SDS011;30989;52.078;21.014;2023-02-05T08:54:37;6.95;;;2.90;;
45254;SDS011;30989;52.078;21.014;2023-02-05T08:57:02;6.75;;;3.03;;
45254;SDS011;30989;52.078;21.014;2023-02-05T08:59:28;7.55;;;3.53;;
45254;SDS011;30989;52.078;21.014;2023-02-05T09:01:53;6.28;;;2.70;;
45254;SDS011;30989;52.078;21.014;2023-02-05T09:04:19;5.88;;;2.83;;
45254;SDS011;30989;52.078;21.014;2023-02-05T09:06:46;9.40;;;2.72;;
45254;SDS011;30989;52.078;21.014;2023-02-05T09:09:12;10.55;;;3.15;;
45254;SDS011;30989;52.078;21.014;2023-02-05T09:11:37;5.63;;;3.25;;
45254;SDS011;30989;52.078;21.014;2023-02-05T09:14:03;6.13;;;2.53;;
45254;SDS011;30989;52.078;21.014;2023-02-05T09:16:30;9.63;;;3.10;;
45254;SDS011;30989;52.078;21.014;2023-02-05T09:18:56;9.85;;;3.67;;
45254;SDS011;30989;52.078;21.014;2023-02-05T09:21:22;7.80;;;3.03;;
45254;SDS011;30989;52.078;21.014;2023-02-05T09:23:49;12.30;;;4.07;;
45254;SDS011;30989;52.078;21.014;2023-02-05T09:26:15;4.90;;;2.70;;
45254;SDS011;30989;52.078;21.014;2023-02-05T09:28:40;8.23;;;3.30;;
45254;SDS011;30989;52.078;21.014;2023-02-05T09:31:06;10.10;;;3.60;;
45254;SDS011;30989;52.078;21.014;2023-02-05T09:33:34;6.32;;;3.00;;
45254;SDS011;30989;52.078;21.014;2023-02-05T09:36:06;9.60;;;3.42;;
45254;SDS011;30989;52.078;21.014;2023-02-05T09:38:33;8.45;;;3.25;;
45254;SDS011;30989;52.078;21.014;2023-02-05T09:41:01;10.77;;;2.97;;
45254;SDS011;30989;52.078;21.014;2023-02-05T09:43:58;8.95;;;3.10;;
45254;SDS011;30989;52.078;21.014;2023-02-05T09:50:03;8.00;;;3.28;;
45254;SDS011;30989;52.078;21.014;2023-02-05T09:52:51;6.38;;;3.50;;
45254;SDS011;30989;52.078;21.014;2023-02-05T09:55:24;9.20;;;3.30;;
45254;SDS011;30989;52.078;21.014;2023-02-05T09:57:53;10.73;;;3.03;;
45254;SDS011;30989;52.078;21.014;2023-02-05T10:00:31;9.40;;;3.47;;
45254;SDS011;30989;52.078;21.014;2023-02-05T10:06:02;8.40;;;3.08;;
45254;SDS011;30989;52.078;21.014;2023-02-05T10:11:25;7.28;;;3.13;;
45254;SDS011;30989;52.078;21.014;2023-02-05T10:34:00;11.57;;;4.85;;
45254;SDS011;30989;52.078;21.014;2023-02-05T10:36:39;8.70;;;3.83;;
45254;SDS011;30989;52.078;21.014;2023-02-05T10:39:09;9.15;;;4.00;;
45254;SDS011;30989;52.078;21.014;2023-02-05T10:41:39;7.80;;;2.80;;
45254;SDS011;30989;52.078;21.014;2023-02-05T10:44:18;5.60;;;2.47;;
45254;SDS011;30989;52.078;21.014;2023-02-05T10:46:54;5.15;;;2.42;;
45254;SDS011;30989;52.078;21.014;2023-02-05T10:49:31;4.95;;;1.85;;
45254;SDS011;30989;52.078;21.014;2023-02-05T10:52:11;6.30;;;2.63;;
45254;SDS011;30989;52.078;21.014;2023-02-05T10:54:38;5.18;;;2.40;;
45254;SDS011;30989;52.078;21.014;2023-02-05T10:57:08;8.98;;;2.58;;
45254;SDS011;30989;52.078;21.014;2023-02-05T10:59:53;3.22;;;1.67;;
45254;SDS011;30989;52.078;21.014;2023-02-05T11:02:22;3.50;;;1.73;;
45254;SDS011;30989;52.078;21.014;2023-02-05T11:05:00;6.53;;;2.42;;
45254;SDS011;30989;52.078;21.014;2023-02-05T11:07:35;4.18;;;1.98;;
45254;SDS011;30989;52.078;21.014;2023-02-05T11:10:11;5.25;;;2.42;;
45254;SDS011;30989;52.078;21.014;2023-02-05T11:12:42;6.25;;;2.22;;
45254;SDS011;30989;52.078;21.014;2023-02-05T11:15:19;4.63;;;1.73;;
45254;SDS011;30989;52.078;21.014;2023-02-05T11:17:48;7.03;;;2.20;;
45254;SDS011;30989;52.078;21.014;2023-02-05T11:22:41;3.78;;;1.90;;
45254;SDS011;30989;52.078;21.014;2023-02-05T11:25:20;4.85;;;1.80;;
45254;SDS011;30989;52.078;21.014;2023-02-05T11:27:57;4.00;;;1.95;;
45254;SDS011;30989;52.078;21.014;2023-02-05T11:33:17;10.02;;;3.42;;
45254;SDS011;30989;52.078;21.014;2023-02-05T11:38:26;5.75;;;2.20;;
45254;SDS011;30989;52.078;21.014;2023-02-05T11:40:57;8.57;;;2.97;;
45254;SDS011;30989;52.078;21.014;2023-02-05T11:43:37;6.82;;;2.72;;
45254;SDS011;30989;52.078;21.014;2023-02-05T11:46:12;9.50;;;3.40;;
45254;SDS011;30989;52.078;21.014;2023-02-05T11:48:42;8.03;;;3.00;;
45254;SDS011;30989;52.078;21.014;2023-02-05T11:53:46;8.75;;;3.40;;
45254;SDS011;30989;52.078;21.014;2023-02-05T11:56:19;5.93;;;2.22;;
45254;SDS011;30989;52.078;21.014;2023-02-05T11:59:04;7.38;;;2.78;;
45254;SDS011;30989;52.078;21.014;2023-02-05T12:01:41;5.70;;;2.25;;
45254;SDS011;30989;52.078;21.014;2023-02-05T12:06:36;9.38;;;3.33;;
45254;SDS011;30989;52.078;21.014;2023-02-05T12:09:07;9.73;;;3.90;;
45254;SDS011;30989;52.078;21.014;2023-02-05T12:14:43;12.60;;;6.00;;
45254;SDS011;30989;52.078;21.014;2023-02-05T12:31:25;13.30;;;5.53;;
45254;SDS011;30989;52.078;21.014;2023-02-05T12:39:31;16.00;;;5.50;;
45254;SDS011;30989;52.078;21.014;2023-02-05T12:47:36;12.25;;;4.60;;
45254;SDS011;30989;52.078;21.014;2023-02-05T12:50:15;12.73;;;4.55;;
45254;SDS011;30989;52.078;21.014;2023-02-05T12:53:06;13.90;;;4.85;;
45254;SDS011;30989;52.078;21.014;2023-02-05T12:56:11;16.58;;;5.15;;
45254;SDS011;30989;52.078;21.014;2023-02-05T12:58:42;14.82;;;5.82;;
45254;SDS011;30989;52.078;21.014;2023-02-05T13:01:16;14.90;;;5.05;;
45254;SDS011;30989;52.078;21.014;2023-02-05T13:03:49;16.92;;;6.10;;
45254;SDS011;30989;52.078;21.014;2023-02-05T13:06:20;18.48;;;5.57;;
45254;SDS011;30989;52.078;21.014;2023-02-05T13:09:00;10.75;;;4.43;;
45254;SDS011;30989;52.078;21.014;2023-02-05T13:11:38;13.75;;;5.70;;
45254;SDS011;30989;52.078;21.014;2023-02-05T13:14:16;14.15;;;4.72;;
45254;SDS011;30989;52.078;21.014;2023-02-05T13:16:49;19.33;;;4.78;;
45254;SDS011;30989;52.078;21.014;2023-02-05T13:19:29;15.68;;;5.03;;
45254;SDS011;30989;52.078;21.014;2023-02-05T13:21:59;11.32;;;4.68;;
45254;SDS011;30989;52.078;21.014;2023-02-05T13:24:51;14.02;;;4.80;;
45254;SDS011;30989;52.078;21.014;2023-02-05T13:27:44;15.43;;;5.68;;
45254;SDS011;30989;52.078;21.014;2023-02-05T13:30:36;12.40;;;4.47;;
45254;SDS011;30989;52.078;21.014;2023-02-05T13:33:05;13.13;;;4.97;;
45254;SDS011;30989;52.078;21.014;2023-02-05T13:35:39;16.38;;;5.80;;
45254;SDS011;30989;52.078;21.014;2023-02-05T13:38:43;20.73;;;6.60;;
45254;SDS011;30989;52.078;21.014;2023-02-05T13:41:25;10.80;;;4.80;;
45254;SDS011;30989;52.078;21.014;2023-02-05T13:46:43;15.27;;;5.82;;
45254;SDS011;30989;52.078;21.014;2023-02-05T13:49:37;12.90;;;4.80;;
45254;SDS011;30989;52.078;21.014;2023-02-05T13:54:51;11.40;;;4.30;;
45254;SDS011;30989;52.078;21.014;2023-02-05T13:57:51;9.13;;;3.95;;
45254;SDS011;30989;52.078;21.014;2023-02-05T14:00:34;11.50;;;5.03;;
45254;SDS011;30989;52.078;21.014;2023-02-05T14:03:02;9.13;;;4.10;;
45254;SDS011;30989;52.078;21.014;2023-02-05T14:05:33;10.45;;;4.47;;
45254;SDS011;30989;52.078;21.014;2023-02-05T14:08:01;8.68;;;3.97;;
45254;SDS011;30989;52.078;21.014;2023-02-05T14:10:34;8.15;;;3.38;;
45254;SDS011;30989;52.078;21.014;2023-02-05T14:13:25;11.25;;;4.35;;
45254;SDS011;30989;52.078;21.014;2023-02-05T14:15:57;9.77;;;4.20;;
45254;SDS011;30989;52.078;21.014;2023-02-05T14:18:45;10.27;;;3.97;;
45254;SDS011;30989;52.078;21.014;2023-02-05T14:27:42;8.05;;;3.63;;
45254;SDS011;30989;52.078;21.014;2023-02-05T14:35:32;9.10;;;4.28;;
45254;SDS011;30989;52.078;21.014;2023-02-05T14:38:20;8.52;;;3.17;;
45254;SDS011;30989;52.078;21.014;2023-02-05T14:41:03;9.45;;;3.63;;
45254;SDS011;30989;52.078;21.014;2023-02-05T14:43:37;9.95;;;4.03;;
45254;SDS011;30989;52.078;21.014;2023-02-05T14:49:04;10.23;;;4.75;;
45254;SDS011;30989;52.078;21.014;2023-02-05T14:51:41;11.02;;;3.45;;
45254;SDS011;30989;52.078;21.014;2023-02-05T14:54:16;8.95;;;4.38;;
45254;SDS011;30989;52.078;21.014;2023-02-05T14:56:46;10.25;;;4.78;;
45254;SDS011;30989;52.078;21.014;2023-02-05T14:59:19;12.63;;;4.13;;
45254;SDS011;30989;52.078;21.014;2023-02-05T15:01:53;10.82;;;3.85;;
45254;SDS011;30989;52.078;21.014;2023-02-05T15:07:10;9.25;;;4.15;;
45254;SDS011;30989;52.078;21.014;2023-02-05T15:09:41;11.68;;;5.25;;
45254;SDS011;30989;52.078;21.014;2023-02-05T15:12:28;16.00;;;5.28;;
45254;SDS011;30989;52.078;21.014;2023-02-05T15:14:59;9.88;;;3.67;;
45254;SDS011;30989;52.078;21.014;2023-02-05T15:17:53;8.05;;;3.53;;
45254;SDS011;30989;52.078;21.014;2023-02-05T15:20:24;10.13;;;3.85;;
45254;SDS011;30989;52.078;21.014;2023-02-05T15:23:03;9.25;;;3.97;;
45254;SDS011;30989;52.078;21.014;2023-02-05T15:25:54;10.25;;;4.10;;
45254;SDS011;30989;52.078;21.014;2023-02-05T15:31:28;9.70;;;4.70;;
45254;SDS011;30989;52.078;21.014;2023-02-05T15:33:59;15.68;;;5.63;;
45254;SDS011;30989;52.078;21.014;2023-02-05T15:36:34;12.65;;;6.13;;
45254;SDS011;30989;52.078;21.014;2023-02-05T15:41:48;13.07;;;4.63;;
45254;SDS011;30989;52.078;21.014;2023-02-05T15:44:22;15.27;;;5.78;;
45254;SDS011;30989;52.078;21.014;2023-02-05T15:46:52;13.00;;;5.32;;
45254;SDS011;30989;52.078;21.014;2023-02-05T15:49:19;14.10;;;5.80;;
45254;SDS011;30989;52.078;21.014;2023-02-05T15:51:56;11.57;;;4.43;;
45254;SDS011;30989;52.078;21.014;2023-02-05T15:54:24;12.77;;;4.88;;
45254;SDS011;30989;52.078;21.014;2023-02-05T15:56:50;10.65;;;4.15;;
45254;SDS011;30989;52.078;21.014;2023-02-05T15:59:26;16.17;;;5.53;;
45254;SDS011;30989;52.078;21.014;2023-02-05T16:02:07;11.35;;;5.00;;
45254;SDS011;30989;52.078;21.014;2023-02-05T16:04:43;12.55;;;5.32;;
45254;SDS011;30989;52.078;21.014;2023-02-05T16:07:22;10.30;;;4.22;;
45254;SDS011;30989;52.078;21.014;2023-02-05T16:09:54;14.68;;;5.22;;
45254;SDS011;30989;52.078;21.014;2023-02-05T16:12:24;16.00;;;5.03;;
45254;SDS011;30989;52.078;21.014;2023-02-05T16:14:59;10.57;;;4.25;;
45254;SDS011;30989;52.078;21.014;2023-02-05T16:17:40;9.35;;;3.75;;
45254;SDS011;30989;52.078;21.014;2023-02-05T16:20:29;12.95;;;5.18;;
45254;SDS011;30989;52.078;21.014;2023-02-05T16:22:58;9.35;;;4.43;;
45254;SDS011;30989;52.078;21.014;2023-02-05T16:25:47;10.18;;;4.53;;
45254;SDS011;30989;52.078;21.014;2023-02-05T16:28:21;11.80;;;4.82;;
45254;SDS011;30989;52.078;21.014;2023-02-05T16:30:54;10.95;;;4.95;;
45254;SDS011;30989;52.078;21.014;2023-02-05T16:33:24;13.07;;;4.90;;
45254;SDS011;30989;52.078;21.014;2023-02-05T16:38:21;13.45;;;5.80;;
45254;SDS011;30989;52.078;21.014;2023-02-05T16:40:57;15.75;;;5.45;;
45254;SDS011;30989;52.078;21.014;2023-02-05T16:48:30;9.38;;;4.15;;
45254;SDS011;30989;52.078;21.014;2023-02-05T16:51:03;11.57;;;4.70;;
45254;SDS011;30989;52.078;21.014;2023-02-05T16:53:31;15.02;;;6.90;;
45254;SDS011;30989;52.078;21.014;2023-02-05T16:55:59;16.65;;;6.47;;
45254;SDS011;30989;52.078;21.014;2023-02-05T16:58:36;16.73;;;6.03;;
45254;SDS011;30989;52.078;21.014;2023-02-05T17:01:07;14.93;;;5.93;;
45254;SDS011;30989;52.078;21.014;2023-02-05T17:03:34;14.70;;;6.22;;